createdAt,value
2023-05-21T00:00:45.951Z,15.27
2023-05-21T00:03:16.510Z,15.24
2023-05-21T00:05:56.016Z,15.24
2023-05-21T00:08:24.999Z,15.22
2023-05-21T00:11:03.721Z,15.21
2023-05-21T00:13:30.623Z,15.18
2023-05-21T00:15:57.719Z,15.17
2023-05-21T00:18:25.863Z,15.16
2023-05-21T00:20:53.142Z,15.14
2023-05-21T00:23:20.092Z,15.12
2023-05-21T00:25:47.237Z,15.14
2023-05-21T00:28:15.320Z,15.13
2023-05-21T00:30:45.891Z,15.14
2023-05-21T00:33:14.109Z,15.10
2023-05-21T00:35:41.215Z,15.09
2023-05-21T00:38:09.593Z,15.08
2023-05-21T00:40:36.522Z,15.06
2023-05-21T00:43:03.603Z,15.02
2023-05-21T00:45:30.535Z,14.97
2023-05-21T00:47:57.867Z,14.96
2023-05-21T00:50:29.529Z,14.94
2023-05-21T00:52:56.957Z,14.93
2023-05-21T00:55:24.861Z,14.93
2023-05-21T00:57:52.181Z,14.91
2023-05-21T01:00:20.797Z,14.91
2023-05-21T01:02:52.272Z,14.87
2023-05-21T01:05:19.601Z,14.86
2023-05-21T01:07:46.882Z,14.83
2023-05-21T01:10:18.011Z,14.85
2023-05-21T01:12:46.072Z,14.85
2023-05-21T01:15:19.372Z,14.84
2023-05-21T01:17:51.744Z,14.82
2023-05-21T01:20:20.406Z,14.81
2023-05-21T01:22:54.550Z,14.80
2023-05-21T01:25:23.005Z,14.77
2023-05-21T01:27:52.848Z,14.75
2023-05-21T01:30:21.352Z,14.72
2023-05-21T01:33:13.825Z,14.70
2023-05-21T01:35:47.118Z,14.67
2023-05-21T01:38:14.144Z,14.66
2023-05-21T01:40:44.593Z,14.63
2023-05-21T01:43:13.281Z,14.60
2023-05-21T01:45:46.584Z,14.57
2023-05-21T01:48:14.988Z,14.56
2023-05-21T01:50:47.404Z,14.55
2023-05-21T01:53:17.491Z,14.53
2023-05-21T01:55:51.714Z,14.54
2023-05-21T01:58:23.112Z,14.53
2023-05-21T02:00:54.249Z,14.50
2023-05-21T02:03:34.039Z,14.47
2023-05-21T02:06:04.341Z,14.45
2023-05-21T02:08:38.823Z,14.43
2023-05-21T02:13:58.324Z,14.43
2023-05-21T02:16:30.226Z,14.41
2023-05-21T02:18:58.059Z,14.37
2023-05-21T02:21:31.958Z,14.36
2023-05-21T02:24:01.534Z,14.37
2023-05-21T02:26:42.008Z,14.33
2023-05-21T02:29:09.505Z,14.30
2023-05-21T02:31:37.204Z,14.28
2023-05-21T02:34:10.599Z,14.27
2023-05-21T02:36:37.792Z,14.25
2023-05-21T02:39:05.087Z,14.24
2023-05-21T02:41:35.378Z,14.24
2023-05-21T02:44:05.306Z,14.24
2023-05-21T02:46:40.970Z,14.20
2023-05-21T02:49:14.028Z,14.21
2023-05-21T02:51:44.775Z,14.18
2023-05-21T02:54:14.120Z,14.14
2023-05-21T02:56:41.026Z,14.13
2023-05-21T02:59:07.631Z,14.14
2023-05-21T03:01:34.739Z,14.11
2023-05-21T03:04:09.113Z,14.10
2023-05-21T03:06:37.140Z,14.10
2023-05-21T03:09:05.934Z,14.08
2023-05-21T03:11:44.303Z,14.07
2023-05-21T03:14:11.427Z,14.08
2023-05-21T03:16:41.907Z,14.06
2023-05-21T03:19:10.058Z,14.05
2023-05-21T03:21:38.685Z,14.05
2023-05-21T03:24:07.177Z,14.03
2023-05-21T03:26:42.146Z,14.03
2023-05-21T03:29:11.131Z,14.02
2023-05-21T03:31:37.940Z,14.00
2023-05-21T03:34:10.766Z,14.01
2023-05-21T03:36:39.499Z,14.00
2023-05-21T03:39:07.249Z,14.00
2023-05-21T03:41:37.362Z,14.02
2023-05-21T03:44:07.874Z,14.03
2023-05-21T03:46:34.830Z,14.03
2023-05-21T03:49:04.681Z,14.01
2023-05-21T03:51:32.061Z,14.02
2023-05-21T03:54:06.981Z,14.02
2023-05-21T03:56:39.093Z,14.03
2023-05-21T03:59:05.938Z,14.03
2023-05-21T04:01:33.690Z,14.03
2023-05-21T04:04:03.350Z,14.04
2023-05-21T04:06:32.746Z,14.04
2023-05-21T04:09:01.718Z,14.02
2023-05-21T04:11:28.815Z,14.02
2023-05-21T04:13:55.642Z,14.01
2023-05-21T04:18:56.041Z,14.02
2023-05-21T04:21:24.304Z,13.97
2023-05-21T04:23:52.515Z,13.96
2023-05-21T04:26:23.346Z,13.98
2023-05-21T04:28:51.641Z,14.02
2023-05-21T04:31:22.819Z,14.02
2023-05-21T04:33:53.021Z,14.03
2023-05-21T04:36:20.367Z,14.05
2023-05-21T04:38:47.417Z,14.03
2023-05-21T04:41:14.817Z,14.04
2023-05-21T04:43:44.069Z,14.02
2023-05-21T04:46:18.854Z,14.03
2023-05-21T04:48:47.174Z,14.02
2023-05-21T04:51:15.383Z,14.03
2023-05-21T04:53:42.680Z,14.04
2023-05-21T04:56:10.117Z,14.04
2023-05-21T04:58:39.505Z,14.04
2023-05-21T05:01:09.087Z,14.03
2023-05-21T05:03:36.852Z,14.06
2023-05-21T05:06:04.673Z,14.08
2023-05-21T05:08:46.466Z,14.12
2023-05-21T05:11:16.655Z,14.14
2023-05-21T05:13:44.075Z,14.15
2023-05-21T05:16:11.569Z,14.17
2023-05-21T05:18:38.422Z,14.17
2023-05-21T05:21:05.282Z,14.16
2023-05-21T05:23:32.010Z,14.17
2023-05-21T05:25:58.985Z,14.14
2023-05-21T05:28:26.129Z,14.16
2023-05-21T05:30:56.306Z,14.21
2023-05-21T05:33:24.494Z,14.26
2023-05-21T05:35:51.259Z,14.30
2023-05-21T05:38:21.437Z,14.34
2023-05-21T05:40:48.166Z,14.32
2023-05-21T05:43:15.520Z,14.30
2023-05-21T05:45:42.398Z,14.31
2023-05-21T05:48:09.404Z,14.33
2023-05-21T05:50:36.168Z,14.36
2023-05-21T05:53:02.812Z,14.38
2023-05-21T05:55:30.733Z,14.37
2023-05-21T05:57:57.568Z,14.36
2023-05-21T06:00:24.402Z,14.38
2023-05-21T06:02:51.367Z,14.39
2023-05-21T06:05:19.023Z,14.35
2023-05-21T06:10:26.597Z,14.56
2023-05-21T06:12:53.389Z,14.79
2023-05-21T06:15:20.472Z,14.96
2023-05-21T06:17:47.776Z,14.98
2023-05-21T06:20:18.903Z,15.12
2023-05-21T06:22:45.920Z,15.45
2023-05-21T06:25:13.082Z,15.83
2023-05-21T06:27:39.678Z,16.35
2023-05-21T06:30:07.648Z,16.55
2023-05-21T06:32:39.464Z,16.80
2023-05-21T06:35:06.623Z,16.77
2023-05-21T06:37:33.225Z,16.66
2023-05-21T06:40:00.989Z,16.42
2023-05-21T06:42:27.604Z,16.28
2023-05-21T06:44:54.834Z,16.14
2023-05-21T06:47:21.971Z,16.21
2023-05-21T06:49:51.392Z,16.55
2023-05-21T06:52:21.821Z,16.46
2023-05-21T06:54:51.005Z,16.20
2023-05-21T06:57:21.680Z,16.26
2023-05-21T06:59:51.133Z,16.32
2023-05-21T07:02:17.827Z,16.27
2023-05-21T07:04:53.857Z,16.02
2023-05-21T07:07:20.884Z,15.99
2023-05-21T07:09:47.674Z,16.13
2023-05-21T07:12:17.171Z,16.13
2023-05-21T07:14:47.125Z,16.07
2023-05-21T07:17:19.329Z,16.21
2023-05-21T07:19:46.163Z,16.31
2023-05-21T07:22:14.374Z,16.49
2023-05-21T07:24:41.353Z,16.55
2023-05-21T07:27:17.751Z,16.58
2023-05-21T07:29:51.948Z,16.61
2023-05-21T07:32:18.981Z,16.56
2023-05-21T07:34:48.014Z,16.78
2023-05-21T07:37:14.861Z,16.95
2023-05-21T07:39:41.375Z,17.16
2023-05-21T07:42:08.026Z,17.23
2023-05-21T07:44:34.859Z,17.14
2023-05-21T07:47:02.465Z,17.15
2023-05-21T07:49:29.169Z,17.23
2023-05-21T07:51:56.311Z,17.28
2023-05-21T07:54:26.494Z,17.43
2023-05-21T07:56:54.664Z,17.49
2023-05-21T07:59:21.308Z,17.67
2023-05-21T08:01:48.079Z,17.67
2023-05-21T08:04:14.874Z,17.52
2023-05-21T08:06:41.828Z,17.58
2023-05-21T08:09:09.924Z,17.66
2023-05-21T08:11:36.923Z,17.80
2023-05-21T08:14:05.609Z,17.72
2023-05-21T08:16:33.637Z,17.62
2023-05-21T08:19:00.436Z,17.81
2023-05-21T08:21:27.090Z,17.78
2023-05-21T08:23:54.602Z,17.72
2023-05-21T08:26:22.178Z,17.97
2023-05-21T08:28:49.019Z,18.06
2023-05-21T08:31:18.542Z,18.17
2023-05-21T08:33:58.726Z,18.22
2023-05-21T08:36:25.632Z,17.97
2023-05-21T08:38:53.947Z,17.81
2023-05-21T08:41:23.314Z,17.67
2023-05-21T08:43:57.964Z,17.98
2023-05-21T08:46:25.905Z,17.88
2023-05-21T08:48:56.856Z,18.06
2023-05-21T08:51:24.548Z,18.14
2023-05-21T08:53:51.213Z,18.32
2023-05-21T08:56:18.423Z,18.42
2023-05-21T08:58:49.755Z,18.63
2023-05-21T09:01:19.975Z,18.89
2023-05-21T09:04:01.695Z,19.20
2023-05-21T09:06:38.974Z,19.16
2023-05-21T09:09:15.278Z,19.33
2023-05-21T09:11:42.437Z,19.57
2023-05-21T09:14:10.988Z,19.70
2023-05-21T09:16:38.993Z,19.37
2023-05-21T09:19:06.176Z,19.55
2023-05-21T09:21:33.333Z,19.38
2023-05-21T09:24:01.749Z,19.35
2023-05-21T09:26:28.750Z,19.55
2023-05-21T09:29:00.918Z,20.09
2023-05-21T09:31:32.435Z,20.14
2023-05-21T09:33:59.842Z,19.88
2023-05-21T09:36:27.956Z,20.07
2023-05-21T09:38:54.529Z,20.34
2023-05-21T09:41:32.124Z,19.93
2023-05-21T09:44:02.557Z,19.61
2023-05-21T09:46:41.962Z,19.64
2023-05-21T09:49:30.120Z,19.76
2023-05-21T09:52:00.468Z,19.80
2023-05-21T09:54:32.432Z,20.07
2023-05-21T09:57:03.243Z,19.89
2023-05-21T09:59:39.763Z,19.97
2023-05-21T10:02:22.108Z,20.27
2023-05-21T10:04:55.662Z,20.24
2023-05-21T10:07:30.374Z,20.15
2023-05-21T10:09:58.191Z,20.21
2023-05-21T10:12:25.640Z,20.29
2023-05-21T10:14:57.924Z,20.23
2023-05-21T10:17:28.795Z,20.21
2023-05-21T10:19:56.895Z,20.36
2023-05-21T10:22:25.041Z,20.33
2023-05-21T10:24:55.216Z,20.54
2023-05-21T10:27:24.119Z,20.44
2023-05-21T10:29:51.086Z,20.73
2023-05-21T10:32:21.930Z,20.78
2023-05-21T10:34:50.018Z,20.80
2023-05-21T10:37:16.980Z,20.77
2023-05-21T10:39:46.243Z,20.88
2023-05-21T10:42:21.470Z,20.74
2023-05-21T10:45:19.451Z,20.80
2023-05-21T10:48:25.183Z,20.88
2023-05-21T10:51:18.569Z,20.90
2023-05-21T10:54:01.698Z,21.10
2023-05-21T10:57:16.947Z,21.31
2023-05-21T10:59:55.287Z,21.04
2023-05-21T11:02:26.162Z,20.97
2023-05-21T11:05:01.166Z,21.11
2023-05-21T11:07:50.471Z,21.50
2023-05-21T11:10:37.899Z,21.62
2023-05-21T11:13:18.921Z,21.28
2023-05-21T11:15:58.089Z,21.02
2023-05-21T11:18:38.145Z,21.02
2023-05-21T11:21:15.986Z,21.29
2023-05-21T11:23:57.459Z,21.52
2023-05-21T11:26:26.339Z,21.42
2023-05-21T11:29:05.161Z,21.55
2023-05-21T11:31:38.749Z,21.56
2023-05-21T11:34:30.290Z,21.51
2023-05-21T11:37:19.239Z,21.47
2023-05-21T11:39:46.191Z,21.44
2023-05-21T11:42:32.235Z,21.67
2023-05-21T11:45:03.174Z,21.70
2023-05-21T11:47:31.634Z,21.84
2023-05-21T11:50:03.634Z,21.64
2023-05-21T11:52:33.605Z,21.71
2023-05-21T11:55:03.510Z,21.64
2023-05-21T11:57:33.103Z,21.61
2023-05-21T12:00:16.464Z,21.61
2023-05-21T12:02:52.271Z,21.67
2023-05-21T12:05:19.238Z,21.63
2023-05-21T12:07:50.918Z,21.88
2023-05-21T12:10:23.745Z,21.77
2023-05-21T12:12:57.712Z,21.50
2023-05-21T12:15:27.299Z,21.78
2023-05-21T12:17:56.068Z,21.87
2023-05-21T12:20:25.236Z,21.86
2023-05-21T12:22:51.942Z,21.84
2023-05-21T12:25:25.614Z,21.84
2023-05-21T12:27:58.217Z,21.88
2023-05-21T12:30:26.050Z,21.99
2023-05-21T12:32:52.903Z,22.03
2023-05-21T12:35:24.175Z,21.85
2023-05-21T12:37:52.742Z,21.82
2023-05-21T12:40:20.620Z,21.88
2023-05-21T12:42:47.767Z,21.96
2023-05-21T12:45:15.031Z,22.01
2023-05-21T12:47:52.953Z,21.95
2023-05-21T12:50:23.161Z,22.12
2023-05-21T12:52:54.752Z,22.35
2023-05-21T12:55:23.776Z,22.20
2023-05-21T12:58:00.049Z,22.00
2023-05-21T13:00:28.123Z,21.94
2023-05-21T13:02:57.437Z,22.00
2023-05-21T13:05:25.416Z,22.13
2023-05-21T13:07:54.392Z,22.11
2023-05-21T13:10:21.290Z,22.17
2023-05-21T13:12:49.981Z,22.16
2023-05-21T13:15:27.265Z,22.23
2023-05-21T13:17:56.553Z,22.27
2023-05-21T13:20:26.528Z,22.37
2023-05-21T13:22:56.392Z,22.41
2023-05-21T13:25:25.297Z,22.41
2023-05-21T13:27:54.364Z,22.23
2023-05-21T13:30:21.998Z,22.22
2023-05-21T13:32:50.749Z,22.52
2023-05-21T13:35:17.805Z,22.78
2023-05-21T13:37:46.686Z,22.52
2023-05-21T13:40:17.524Z,22.50
2023-05-21T13:42:51.864Z,22.40
2023-05-21T13:45:24.695Z,22.41
2023-05-21T13:47:51.541Z,22.59
2023-05-21T13:50:20.818Z,22.63
2023-05-21T13:52:50.276Z,22.47
2023-05-21T13:55:19.928Z,22.43
2023-05-21T13:57:48.835Z,22.84
2023-05-21T14:00:16.341Z,22.98
2023-05-21T14:02:45.898Z,22.98
2023-05-21T14:05:17.676Z,22.53
2023-05-21T14:07:44.539Z,22.64
2023-05-21T14:10:32.514Z,22.63
2023-05-21T14:13:15.465Z,22.82
2023-05-21T14:15:43.524Z,22.88
2023-05-21T14:18:12.553Z,22.75
2023-05-21T14:20:39.555Z,22.59
2023-05-21T14:23:06.316Z,22.53
2023-05-21T14:25:33.514Z,22.67
2023-05-21T14:28:01.097Z,22.70
2023-05-21T14:30:27.688Z,22.76
2023-05-21T14:32:55.981Z,22.87
2023-05-21T14:35:24.965Z,22.91
2023-05-21T14:37:53.232Z,22.78
2023-05-21T14:40:23.427Z,22.88
2023-05-21T14:42:54.765Z,22.82
2023-05-21T14:45:21.595Z,22.76
2023-05-21T14:47:49.077Z,22.71
2023-05-21T14:50:16.631Z,22.70
2023-05-21T14:52:43.550Z,22.72
2023-05-21T14:55:13.010Z,22.62
2023-05-21T14:57:40.226Z,22.58
2023-05-21T15:00:08.486Z,22.63
2023-05-21T15:02:36.173Z,22.85
2023-05-21T15:05:02.904Z,23.00
2023-05-21T15:07:29.547Z,22.76
2023-05-21T15:09:56.411Z,22.69
2023-05-21T15:12:24.488Z,22.59
2023-05-21T15:14:55.698Z,22.55
2023-05-21T15:17:31.245Z,22.62
2023-05-21T15:20:05.906Z,22.51
2023-05-21T15:22:33.229Z,22.54
2023-05-21T15:25:03.851Z,22.54
2023-05-21T15:27:31.277Z,22.59
2023-05-21T15:29:58.881Z,22.52
2023-05-21T15:32:25.876Z,22.50
2023-05-21T15:34:56.054Z,22.55
2023-05-21T15:37:38.361Z,22.48
2023-05-21T15:40:06.241Z,22.48
2023-05-21T15:42:36.038Z,22.40
2023-05-21T15:45:06.992Z,22.44
2023-05-21T15:47:33.993Z,22.51
2023-05-21T15:50:01.140Z,22.49
2023-05-21T15:52:28.294Z,22.35
2023-05-21T15:54:55.649Z,22.30
2023-05-21T15:57:23.079Z,22.19
2023-05-21T15:59:55.087Z,22.15
2023-05-21T16:02:21.751Z,22.13
2023-05-21T16:04:52.573Z,22.16
2023-05-21T16:07:31.068Z,22.06
2023-05-21T16:09:57.882Z,22.12
2023-05-21T16:12:26.465Z,22.03
2023-05-21T16:14:57.179Z,22.01
2023-05-21T16:17:24.263Z,21.88
2023-05-21T16:19:53.526Z,21.86
2023-05-21T16:22:24.172Z,21.80
2023-05-21T16:24:50.930Z,21.75
2023-05-21T16:27:21.998Z,21.71
2023-05-21T16:29:50.132Z,21.67
2023-05-21T16:32:17.172Z,21.67
2023-05-21T16:34:44.402Z,21.58
2023-05-21T16:37:11.728Z,21.57
2023-05-21T16:39:40.669Z,21.52
2023-05-21T16:42:32.813Z,21.46
2023-05-21T16:45:08.113Z,21.44
2023-05-21T16:47:37.783Z,21.39
2023-05-21T16:50:29.127Z,21.34
2023-05-21T16:53:04.426Z,21.33
2023-05-21T16:55:42.630Z,21.39
2023-05-21T16:58:16.836Z,21.43
2023-05-21T17:00:44.553Z,21.34
2023-05-21T17:03:13.688Z,21.27
2023-05-21T17:05:43.502Z,21.19
2023-05-21T17:08:32.102Z,21.16
2023-05-21T17:10:59.357Z,21.16
2023-05-21T17:13:59.015Z,21.14
2023-05-21T17:16:25.893Z,21.02
2023-05-21T17:18:55.660Z,21.02
2023-05-21T17:21:33.706Z,21.08
2023-05-21T17:24:10.760Z,21.00
2023-05-21T17:26:39.554Z,20.94
2023-05-21T17:29:34.882Z,20.82
2023-05-21T17:35:03.670Z,20.84
2023-05-21T17:37:39.758Z,20.75
2023-05-21T17:40:08.620Z,20.71
2023-05-21T17:42:50.922Z,20.64
2023-05-21T17:45:36.329Z,20.65
2023-05-21T17:48:23.401Z,20.61
2023-05-21T17:50:54.762Z,20.55
2023-05-21T17:56:15.549Z,20.48
2023-05-21T17:58:42.178Z,20.40
2023-05-21T18:01:08.852Z,20.33
2023-05-21T18:03:36.036Z,20.33
2023-05-21T18:06:02.714Z,20.30
2023-05-21T18:11:11.262Z,20.17
2023-05-21T18:13:38.189Z,20.08
2023-05-21T18:16:09.201Z,20.06
2023-05-21T18:18:36.064Z,20.05
2023-05-21T18:21:05.836Z,19.99
2023-05-21T18:23:33.481Z,19.92
2023-05-21T18:26:00.214Z,19.87
2023-05-21T18:28:29.594Z,19.84
2023-05-21T18:31:01.046Z,19.78
2023-05-21T18:33:27.781Z,19.77
2023-05-21T18:35:54.851Z,19.74
2023-05-21T18:38:23.370Z,19.72
2023-05-21T18:40:54.976Z,19.68
2023-05-21T18:43:21.621Z,19.62
2023-05-21T18:45:48.261Z,19.58
2023-05-21T18:48:16.890Z,19.57
2023-05-21T18:50:43.824Z,19.49
2023-05-21T18:53:14.600Z,19.44
2023-05-21T18:55:41.492Z,19.40
2023-05-21T18:58:08.105Z,19.36
2023-05-21T19:00:38.005Z,19.33
2023-05-21T19:03:04.955Z,19.27
2023-05-21T19:05:34.156Z,19.19
2023-05-21T19:08:01.088Z,19.16
2023-05-21T19:10:27.795Z,19.13
2023-05-21T19:12:54.631Z,19.05
2023-05-21T19:15:22.008Z,19.01
2023-05-21T19:17:51.859Z,18.93
2023-05-21T19:20:25.263Z,18.87
2023-05-21T19:22:51.973Z,18.83
2023-05-21T19:25:21.492Z,18.83
2023-05-21T19:27:48.490Z,18.78
2023-05-21T19:30:17.892Z,18.75
2023-05-21T19:32:49.199Z,18.68
2023-05-21T19:35:16.901Z,18.59
2023-05-21T19:37:43.816Z,18.51
2023-05-21T19:40:19.779Z,18.45
2023-05-21T19:42:46.598Z,18.37
2023-05-21T19:45:13.469Z,18.33
2023-05-21T19:47:41.447Z,18.30
2023-05-21T19:50:21.892Z,18.24
2023-05-21T19:52:49.016Z,18.19
2023-05-21T19:55:23.339Z,18.12
2023-05-21T19:57:52.621Z,18.06
2023-05-21T20:00:21.621Z,18.01
2023-05-21T20:02:48.203Z,17.98
2023-05-21T20:05:16.940Z,17.93
2023-05-21T20:07:43.886Z,17.87
2023-05-21T20:10:13.708Z,17.84
2023-05-21T20:12:40.767Z,17.73
2023-05-21T20:15:08.058Z,17.72
2023-05-21T20:17:36.012Z,17.66
2023-05-21T20:20:05.616Z,17.64
2023-05-21T20:22:33.396Z,17.59
2023-05-21T20:25:01.904Z,17.55
2023-05-21T20:27:31.237Z,17.52
2023-05-21T20:29:59.883Z,17.44
2023-05-21T20:32:27.248Z,17.42
2023-05-21T20:35:02.672Z,17.39
2023-05-21T20:37:32.794Z,17.30
2023-05-21T20:40:03.418Z,17.23
2023-05-21T20:42:34.391Z,17.20
2023-05-21T20:45:06.708Z,17.14
2023-05-21T20:47:40.586Z,17.08
2023-05-21T20:50:30.672Z,17.02
2023-05-21T20:53:25.196Z,16.95
2023-05-21T20:56:00.466Z,16.90
2023-05-21T20:58:27.389Z,16.86
2023-05-21T21:00:55.651Z,16.83
2023-05-21T21:03:22.719Z,16.81
2023-05-21T21:05:53.083Z,16.81
2023-05-21T21:08:20.318Z,16.78
2023-05-21T21:10:47.174Z,16.75
2023-05-21T21:13:15.022Z,16.77
2023-05-21T21:15:44.089Z,16.77
2023-05-21T21:18:12.478Z,16.71
2023-05-21T21:20:39.813Z,16.71
2023-05-21T21:23:06.613Z,16.67
2023-05-21T21:25:33.888Z,16.63
2023-05-21T21:28:05.025Z,16.62
2023-05-21T21:30:35.484Z,16.59
2023-05-21T21:33:02.125Z,16.60
2023-05-21T21:35:29.467Z,16.56
2023-05-21T21:38:00.292Z,16.54
2023-05-21T21:40:29.887Z,16.57
2023-05-21T21:42:59.783Z,16.56
2023-05-21T21:45:31.550Z,16.52
2023-05-21T21:47:59.829Z,16.47
2023-05-21T21:50:29.200Z,16.44
2023-05-21T21:55:46.169Z,16.47
2023-05-21T21:58:16.097Z,16.45
2023-05-21T22:00:43.603Z,16.43
2023-05-21T22:03:25.427Z,16.40
2023-05-21T22:05:52.274Z,16.40
2023-05-21T22:08:19.955Z,16.39
2023-05-21T22:10:49.821Z,16.34
2023-05-21T22:13:20.316Z,16.32
2023-05-21T22:16:13.413Z,16.28
2023-05-21T22:18:43.728Z,16.25
2023-05-21T22:21:14.789Z,16.22
2023-05-21T22:23:43.128Z,16.18
2023-05-21T22:26:10.121Z,16.16
2023-05-21T22:28:36.986Z,16.16
2023-05-21T22:31:03.880Z,16.12
2023-05-21T22:33:35.876Z,16.03
2023-05-21T22:36:02.512Z,15.99
2023-05-21T22:38:29.414Z,15.96
2023-05-21T22:40:56.544Z,15.96
2023-05-21T22:43:23.216Z,15.92
2023-05-21T22:45:51.407Z,15.93
2023-05-21T22:48:18.506Z,15.92
2023-05-21T22:50:46.449Z,15.90
2023-05-21T22:53:13.408Z,15.84
2023-05-21T22:56:16.290Z,15.82
2023-05-21T22:58:48.664Z,15.82
2023-05-21T23:01:21.299Z,15.80
2023-05-21T23:03:51.290Z,15.81
2023-05-21T23:06:22.539Z,15.79
2023-05-21T23:08:51.782Z,15.82
2023-05-21T23:11:21.686Z,15.88
2023-05-21T23:13:48.829Z,15.92
2023-05-21T23:16:17.357Z,15.90
2023-05-21T23:18:46.152Z,15.87
2023-05-21T23:21:15.268Z,15.86
2023-05-21T23:23:42.336Z,15.89
2023-05-21T23:26:09.194Z,15.94
2023-05-21T23:28:38.914Z,15.92
2023-05-21T23:31:08.127Z,15.91
2023-05-21T23:33:37.923Z,15.90
2023-05-21T23:36:05.360Z,15.92
2023-05-21T23:38:32.618Z,15.90
2023-05-21T23:41:00.915Z,15.86
2023-05-21T23:43:29.038Z,15.87
2023-05-21T23:45:56.058Z,15.86
2023-05-21T23:48:22.999Z,15.81
2023-05-21T23:50:53.363Z,15.74
2023-05-21T23:53:22.913Z,15.73
2023-05-21T23:55:52.743Z,15.76
2023-05-21T23:58:20.166Z,15.75
